Tiempo atmosférico en la estación meteorológica de La Riba de Escalote, Soria (1042 m.)



Fecha
DESCASC
Temp. máxima en grados centígrados (hora)
DESCASC
Temp. mínima en grados centígrados (hora)
DESCASC
Temp. media en grados centígrados
DESCASC
Racha de viento máxima en m/sg (hora)
DESCASC
Velocidad máxima media en intervalos de 10 minutos(hora)
DESCASC
Precipitaciones diarias en mm
DESCASC
Precipitaciones de 00:00 a 06:00 en mm
DESCASC
Precipitaciones de 06:00 a 12:00 en mm
DESCASC
Precipitaciones de 12:00 a 18:00 en mm
DESCASC
Precipitaciones de 18:00 a 24:00 en mm
DESCASC
02-08-2020 29.4 (16:50) 12.3 (07:20) 20.8 10.28 (19:10) 6.94 (19:20) 0 0 0 0 0
01-08-2020 33.1 (17:50) 13.8 (07:10) 23.4 12.78 (17:40) 7.78 (22:20) 0 0 0 0 0
31-07-2020 34 (15:50) 17.4 (03:00) 25.7 11.11 (16:00) 8.33 (05:40) 0 0 0 0 0
30-07-2020 36.2 (16:10) 18.7 (00:00) 27.5 16.39 (20:50) 11.11 (20:30) 1.8 0 0 0.2 1.6
29-07-2020 33.8 (17:00) 15.5 (00:00) 24.6 14.72 (20:10) 11.67 (20:10) 0 0 0 0 0
28-07-2020 33 (18:30) 22.7 (23:59) 27.9 11.94 (07:10) 9.17 (07:10) 0 0 0 0 0
27-07-2020 36.1 (17:00) 15.6 (00:00) 25.8 14.44 (17:50) 9.17 (19:30) 0 0 0 0 0
26-07-2020 33.8 (18:00) 13.1 (00:00) 23.4 8.06 (15:50) 5 (15:50) 0 0 0 0 0
25-07-2020 33.3 (19:10) 11.7 (07:10) 22.5 9.17 (17:10) 6.39 (17:10) 0 0 0 0 0
24-07-2020 31.2 (17:40) 14.6 (00:00) 22.9 10.83 (15:30) 7.78 (21:40) 0 0 0 0 0
23-07-2020 31.9 (18:10) 15 (00:00) 23.4 10.83 (22:00) 7.78 (22:10) 0 0 0 0 0
22-07-2020 31.1 (17:50) 16.5 (04:50) 23.8 12.78 (11:40) 7.22 (13:20) 0 0 0 0 0
21-07-2020 34.3 (17:00) 17 (00:00) 25.6 20 (19:50) 12.5 (20:00) 0 0 0 0 0
20-07-2020 32.9 (16:30) 15.7 (07:20) 24.3 9.44 (14:10) 6.39 (15:40) 0 0 0 0 0
19-07-2020 33.5 (17:40) 10.1 (00:00) 21.8 16.39 (21:20) 11.94 (21:20) 3.8 0 0 0 3.8
18-07-2020 31.3 (18:00) 7.8 (00:00) 19.5 8.33 (18:50) 4.72 (18:30) 0 0 0 0 0
17-07-2020 29.4 (18:00) 10.5 (00:00) 19.9 10.83 (20:50) 8.06 (20:50) 0 0 0 0 0
16-07-2020 29.5 (18:40) 9.6 (00:00) 19.6 11.11 (20:20) 8.33 (20:20) 0 0 0 0 0
15-07-2020 26.3 (17:30) 8.3 (07:10) 17.3 12.22 (20:00) 9.44 (20:10) 0 0 0 0 0
14-07-2020 26.3 (16:30) 9.3 (00:00) 17.8 12.22 (18:40) 9.17 (19:20) 0 0 0 0 0
13-07-2020 28.2 (16:20) 12.4 (06:30) 20.3 11.67 (20:50) 8.61 (20:40) 0 0 0 0 0
12-07-2020 27.7 (16:30) 15.6 (23:50) 21.7 29.72 (18:10) 16.39 (18:10) 7.2 0 3.4 0 3.8
11-07-2020 31.2 (18:30) 12.9 (06:30) 22.1 11.67 (20:30) 8.61 (21:40) 0 0 0 0 0
10-07-2020 27.6 (17:20) 11.1 (00:00) 19.4 12.22 (20:30) 8.89 (20:50) 0.2 0 0.2 0 0
09-07-2020 29.5 (14:40) 13.6 (07:20) 21.6 22.22 (16:10) 16.67 (16:10) 8.8 0 0 8.6 0.2
08-07-2020 32 (14:50) 14.3 (06:00) 23.2 21.94 (16:10) 13.61 (19:10) 1.2 0 0 1.2 0

Gráficas

Temp. máximas Temp. mínimas Temp. medias Precipitaciones Rachas de viento máximas Velocidades máximas media en intervalos de 10 minutos

Datos horarios

Fecha y hora oficial Temperatura (ºC) Velocidad del viento (km/h) Dirección del viento Racha (km/h) Dirección de racha Precipitación (mm) Presión (hPa) Tendencia (hPa) Humedad (%)
2020-08-06 23:00:00 27 19 Sudeste 27 Sudeste 0 -- -- 39
2020-08-06 22:00:00 29.3 19 Sudoeste 20 Sudoeste 0 -- -- 31
2020-08-06 21:00:00 31.5 14 Sudoeste 27 Sudoeste 0 -- -- 28
2020-08-06 20:00:00 33.1 14 Sudoeste 27 Sudoeste 0 -- -- 27
2020-08-06 19:00:00 33.5 15 Sur 27 Oeste 0 -- -- 28
2020-08-06 18:00:00 32.3 15 Sudoeste 31 Oeste 0 -- -- 28
2020-08-06 17:00:00 32.7 18 Sudoeste 32 Sudoeste 0 -- -- 27
2020-08-06 16:00:00 33.7 17 Sudoeste 40 Sur 0 -- -- 28
2020-08-06 15:00:00 32.9 17 Sur 34 Sur 0 -- -- 28
2020-08-06 14:00:00 32.8 19 Sudoeste 36 Sur 0 -- -- 32
2020-08-06 13:00:00 31.3 14 Sur 28 Sudeste 0 -- -- 39
2020-08-06 12:00:00 28.9 14 Sur 26 Sur 0 -- -- 45
2020-08-06 11:00:00 27 19 Sur 29 Sur 0 -- -- 49
2020-08-06 10:00:00 24.9 21 Sur 27 Sudeste 0 -- -- 56
2020-08-06 09:00:00 20.7 13 Sudeste 15 Sudeste 0 -- -- 59
2020-08-06 08:00:00 15.9 8 Este 12 Este 0 -- -- 63
2020-08-06 07:00:00 14.8 3 Este 4 Este 0 -- -- 57
2020-08-06 06:00:00 14 4 Sudeste 9 Este 0 -- -- 58
2020-08-06 05:00:00 14.5 4 Sur 10 Sudoeste 0 -- -- 57
2020-08-06 04:00:00 15.6 4 Sudeste 8 Este 0 -- -- 51
2020-08-06 03:00:00 18 0 Calma 8 Oeste 0 -- -- 45
2020-08-06 02:00:00 19.7 3 Sur 12 Sudeste 0 -- -- 41
2020-08-06 01:00:00 21.3 4 Sur 18 Sudeste 0 -- -- 36
2020-08-06 00:00:00 22.2 7 Sudeste 17 Sudeste 0 -- -- 37
2020-08-05 23:00:00 23.9 12 Este 25 Este 0 -- -- 35
2020-08-05 22:00:00 26.7 3 Norte 13 Nordeste 0 -- -- 29
2020-08-05 21:00:00 30 4 Noroeste 13 Norte 0 -- -- 25
2020-08-05 20:00:00 31.1 5 Norte 17 Norte 0 -- -- 22
2020-08-05 19:00:00 31.6 6 Nordeste 23 Norte 0 -- -- 23
2020-08-05 18:00:00 31.6 13 Norte 23 Noroeste 0 -- -- 23
2020-08-05 17:00:00 31.4 8 Norte 28 Noroeste 0 -- -- 22
2020-08-05 16:00:00 31.2 13 Noroeste 27 Noroeste 0 -- -- 22
2020-08-05 15:00:00 30.1 12 Norte 23 Noroeste 0 -- -- 24
2020-08-05 14:00:00 28.9 15 Noroeste 26 Oeste 0 -- -- 25
2020-08-05 13:00:00 27.9 14 Noroeste 23 Noroeste 0 -- -- 24
2020-08-05 12:00:00 26.5 6 Norte 15 Norte 0 -- -- 31
2020-08-05 11:00:00 24.5 4 Norte 12 Norte 0 -- -- 38
2020-08-05 10:00:00 20.3 3 Sudeste 6 Este 0 -- -- 53
2020-08-05 09:00:00 14.2 0 Calma 6 Sudeste 0 -- -- 73
2020-08-05 08:00:00 10.8 0 Calma 5 Sudeste 0 -- -- 81
2020-08-05 07:00:00 10.4 3 Sudeste 5 Sudeste 0 -- -- 82
2020-08-05 06:00:00 11.1 4 Oeste 5 Oeste 0 -- -- 80
2020-08-05 05:00:00 12 0 Calma 5 Sudeste 0 -- -- 76
2020-08-05 04:00:00 12.9 0 Calma 6 Este 0 -- -- 73
2020-08-05 03:00:00 14 3 Este 4 Sudeste 0 -- -- 70
2020-08-05 02:00:00 15.6 0 Calma 4 Oeste 0 -- -- 65
2020-08-05 01:00:00 17.2 0 Calma 5 Este 0 -- -- 61
2020-08-05 00:00:00 18.6 7 Este 18 Sudeste 0 -- -- 57
2020-08-04 23:00:00 20 4 Oeste 24 Este 0 -- -- 53
2020-08-04 22:00:00 21.9 17 Este 26 Este 0 -- -- 47
2020-08-04 21:00:00 25.8 6 Noroeste 15 Noroeste 0 -- -- 29
2020-08-04 20:00:00 27.3 11 Noroeste 21 Norte 0 -- -- 24
2020-08-04 19:00:00 27.5 8 Norte 23 Nordeste 0 -- -- 24
2020-08-04 18:00:00 27.5 11 Norte 20 Nordeste 0 -- -- 22
2020-08-04 17:00:00 27.1 8 Nordeste 23 Nordeste 0 -- -- 26
2020-08-04 16:00:00 26.3 8 Norte 27 Nordeste 0 -- -- 28
2020-08-04 15:00:00 24.9 6 Noroeste 20 Nordeste 0 -- -- 34
2020-08-04 14:00:00 23.6 10 Norte 22 Nordeste 0 -- -- 38
2020-08-04 13:00:00 22 13 Nordeste 22 Nordeste 0 -- -- 43
2020-08-04 12:00:00 20.1 13 Nordeste 24 Nordeste 0 -- -- 50
2020-08-04 11:00:00 18.2 12 Nordeste 21 Nordeste 0 -- -- 56
2020-08-04 10:00:00 16.5 14 Nordeste 19 Este 0 -- -- 63
2020-08-04 09:00:00 14 4 Este 9 Nordeste 0 -- -- 72
2020-08-04 08:00:00 10.4 2 Sudeste 4 Este 0 -- -- 82
2020-08-04 07:00:00 9.9 0 Calma 4 Este 0 -- -- 82
2020-08-04 06:00:00 10.8 0 Calma 3 Nordeste 0 -- -- 81
2020-08-04 05:00:00 12 3 Sudeste 8 Nordeste 0 -- -- 76
2020-08-04 04:00:00 13 4 Sudeste 10 Este 0 -- -- 74
2020-08-04 03:00:00 13.5 4 Sudoeste 10 Nordeste 0 -- -- 75
2020-08-04 02:00:00 14.3 7 Sudeste 19 Este 0 -- -- 72
2020-08-04 01:00:00 15.6 9 Este 22 Nordeste 0 -- -- 67
2020-08-04 00:00:00 16.7 19 Nordeste 29 Este 0 -- -- 63
2020-08-03 23:00:00 18 21 Este 35 Este 0 -- -- 57
2020-08-03 22:00:00 20.1 17 Nordeste 35 Noroeste 0 -- -- 51
2020-08-03 21:00:00 23.2 21 Noroeste 37 Noroeste 0 -- -- 40
2020-08-03 20:00:00 24.8 24 Noroeste 38 Oeste 0 -- -- 36
2020-08-03 19:00:00 26.5 20 Noroeste 35 Noroeste 0 -- -- 31
2020-08-03 18:00:00 26.8 14 Noroeste 27 Noroeste 0 -- -- 29
2020-08-03 17:00:00 26.3 15 Noroeste 28 Noroeste 0 -- -- 30
2020-08-03 16:00:00 25.4 9 Noroeste 29 Noroeste 0 -- -- 34
2020-08-03 15:00:00 24.6 13 Noroeste 30 Noroeste 0 -- -- 37
2020-08-03 14:00:00 24.1 14 Noroeste 30 Noroeste 0 -- -- 41
2020-08-03 13:00:00 22.5 13 Noroeste 27 Noroeste 0 -- -- 44
2020-08-03 12:00:00 20.8 11 Norte 21 Oeste 0 -- -- 48
2020-08-03 11:00:00 18.9 12 Norte 21 Noroeste 0 -- -- 53
2020-08-03 10:00:00 17.4 9 Norte 18 Norte 0 -- -- 59
2020-08-03 09:00:00 13.9 3 Noroeste 6 Norte 0 -- -- 71
2020-08-03 08:00:00 11.8 2 Oeste 5 Oeste 0 -- -- 77
2020-08-03 07:00:00 12 0 Calma 5 Norte 0 -- -- 77
2020-08-03 06:00:00 13 5 Norte 7 Norte 0 -- -- 73
2020-08-03 05:00:00 14.2 4 Norte 14 Este 0 -- -- 69
2020-08-03 04:00:00 14.6 6 Este 15 Este 0 -- -- 68
2020-08-03 03:00:00 14.8 3 Nordeste 8 Noroeste 0 -- -- 70
2020-08-03 02:00:00 14.8 2 Este 11 Nordeste 0 -- -- 70
2020-08-03 01:00:00 15 2 Nordeste 16 Nordeste 0 -- -- 73
2020-08-03 00:00:00 15.5 3 Este 17 Este 0 -- -- 75
2020-08-02 23:00:00 16.5 8 Nordeste 27 Nordeste 0 -- -- 73
2020-08-02 22:00:00 18.3 15 Este 26 Este 0 -- -- 67
2020-08-02 21:00:00 22.5 14 Noroeste 28 Noroeste 0 -- -- 36
2020-08-02 20:00:00 23.5 18 Noroeste 37 Noroeste 0 -- -- 44
2020-08-02 19:00:00 25.6 21 Noroeste 33 Noroeste 0 -- -- 43
2020-08-02 18:00:00 27.6 21 Noroeste 35 Norte 0 -- -- 41
2020-08-02 17:00:00 28.8 17 Noroeste 30 Noroeste 0 -- -- 39
2020-08-02 16:00:00 29 14 Norte 24 Noroeste 0 -- -- 38
2020-08-02 15:00:00 28.3 8 Sur 28 Noroeste 0 -- -- 38
2020-08-02 14:00:00 27.4 10 Nordeste 22 Noroeste 0 -- -- 41
2020-08-02 13:00:00 25.8 12 Noroeste 21 Norte 0 -- -- 45
2020-08-02 12:00:00 24.6 8 Norte 19 Este 0 -- -- 51
2020-08-02 11:00:00 22.4 4 Nordeste 15 Nordeste 0 -- -- 59
2020-08-02 10:00:00 19.5 11 Este 18 Este 0 -- -- 70
2020-08-02 09:00:00 16.3 3 Sudeste 6 Sur 0 -- -- 83
2020-08-02 08:00:00 12.8 5 Oeste 6 Oeste 0 -- -- 91
2020-08-02 07:00:00 12.8 3 Oeste 4 Oeste 0 -- -- 91
2020-08-02 06:00:00 13.5 0 Calma 3 Oeste 0 -- -- 87
2020-08-02 05:00:00 14.4 0 Calma 5 Oeste 0 -- -- 87
2020-08-02 04:00:00 15.2 0 Calma 9 Este 0 -- -- 84
2020-08-02 03:00:00 16 8 Este 13 Este 0 -- -- 82
2020-08-02 02:00:00 16.7 6 Sudeste 16 Sudeste 0 -- -- 80
2020-08-02 01:00:00 18 5 Este 20 Este 0 -- -- 75
2020-08-02 00:00:00 19 10 Este 28 Este 0 -- -- 72
2020-08-01 23:00:00 21.3 20 Sudeste 36 Este 0 -- -- 64
2020-08-01 22:00:00 24.7 15 Sudeste 20 Este 0 -- -- 49
2020-08-01 21:00:00 28.1 13 Noroeste 28 Noroeste 0 -- -- 29
2020-08-01 20:00:00 30.6 21 Noroeste 41 Noroeste 0 -- -- 27
2020-08-01 19:00:00 31.7 25 Noroeste 36 Oeste 0 -- -- 26
2020-08-01 18:00:00 32.6 20 Noroeste 46 Noroeste 0 -- -- 25
2020-08-01 17:00:00 32.9 27 Oeste 41 Noroeste 0 -- -- 21
2020-08-01 16:00:00 31.9 18 Noroeste 33 Noroeste 0 -- -- 27
2020-08-01 15:00:00 31.6 18 Norte 33 Noroeste 0 -- -- 27
2020-08-01 14:00:00 30.9 22 Noroeste 31 Noroeste 0 -- -- 27
2020-08-01 13:00:00 29.5 19 Noroeste 39 Noroeste 0 -- -- 28
2020-08-01 12:00:00 28.1 4 Noroeste 11 Norte 0 -- -- 31
2020-08-01 11:00:00 24.8 3 Norte 12 Norte 0 -- -- 37
2020-08-01 10:00:00 22.6 5 Norte 10 Norte 0 -- -- 40
2020-08-01 09:00:00 18.1 2 Norte 7 Oeste 0 -- -- 53
2020-08-01 08:00:00 14.3 3 Oeste 8 Este 0 -- -- 66
2020-08-01 07:00:00 14.1 5 Sudeste 8 Sudeste 0 -- -- 63
2020-08-01 06:00:00 15.3 0 Calma 7 Sudeste 0 -- -- 60
2020-08-01 05:00:00 16.4 0 Calma 8 Este 0 -- -- 58
2020-08-01 04:00:00 16.8 6 Sudeste 7 Sur 0 -- -- 57
2020-08-01 03:00:00 17.7 4 Sur 7 Este 0 -- -- 58
2020-08-01 02:00:00 18.8 3 Noroeste 6 Oeste 0 -- -- 54
2020-08-01 01:00:00 20.5 4 Sudeste 6 Sudeste 0 -- -- 49
2020-08-01 00:00:00 22.8 3 Este 11 Oeste 0 -- -- 42
2020-07-31 23:00:00 25 4 Oeste 9 Oeste 0 -- -- 38
2020-07-31 22:00:00 28.7 0 Calma 11 Noroeste 0 -- -- 30
2020-07-31 21:00:00 31.1 8 Noroeste 13 Noroeste 0 -- -- 27
2020-07-31 20:00:00 33.1 8 Norte 13 Norte 0 -- -- 24
2020-07-31 19:00:00 32.7 7 Norte 15 Norte 0 -- -- 27
2020-07-31 18:00:00 32.8 10 Norte 19 Oeste 0 -- -- 26
2020-07-31 17:00:00 33 8 Nordeste 29 Oeste 0 -- -- 27
2020-07-31 16:00:00 33.9 22 Sudoeste 40 Sudoeste 0 -- -- 26
2020-07-31 15:00:00 32.9 10 Oeste 29 Oeste 0 -- -- 26
2020-07-31 14:00:00 31.9 10 Norte 29 Sudoeste 0 -- -- 29
2020-07-31 13:00:00 30.9 15 Sudoeste 32 Sudoeste 0 -- -- 28
2020-07-31 12:00:00 29.4 12 Sudoeste 23 Noroeste 0 -- -- 35
2020-07-31 11:00:00 27.5 8 Sudoeste 18 Nordeste 0 -- -- 38
2020-07-31 10:00:00 25.1 19 Sudoeste 32 Sudoeste 0 -- -- 45
2020-07-31 09:00:00 22.6 12 Sudoeste 21 Sudoeste 0 -- -- 51
2020-07-31 08:00:00 19.1 7 Sudeste 21 Sur 0 -- -- 61
2020-07-31 07:00:00 20.2 9 Sudoeste 32 Sudoeste 0 -- -- 54
2020-07-31 06:00:00 21.3 28 Sudoeste 34 Sudoeste 0 -- -- 50
2020-07-31 05:00:00 21.6 28 Sudoeste 33 Sudoeste 0 -- -- 49
2020-07-31 04:00:00 21 24 Sudoeste 33 Sudoeste 0 -- -- 53
2020-07-31 03:00:00 17.4 5 Sudeste 14 Sudeste 0 -- -- 71
2020-07-31 02:00:00 19.5 17 Sudeste 24 Sudeste 0 -- -- 65
2020-07-31 01:00:00 19.5 17 Sur 23 Sudeste 0 -- -- 66
2020-07-31 00:00:00 20.2 19 Sudeste 38 Sudeste 0 -- -- 65
2020-07-30 23:00:00 20.6 25 Sudeste 40 Sudeste 0 -- -- 62
2020-07-30 22:00:00 21.5 29 Este 42 Nordeste 0.2 -- -- 63
2020-07-30 21:00:00 21.7 28 Este 59 Sudeste 0 -- -- 68
2020-07-30 20:00:00 22.5 25 Este 53 Este 1.4 -- -- 65
2020-07-30 19:00:00 27.4 29 Este 46 Este 0 -- -- 44
2020-07-30 18:00:00 28.6 21 Nordeste 39 Noroeste 0.2 -- -- 41
2020-07-30 17:00:00 34.4 12 Sudoeste 48 Sudoeste 0 -- -- 24
2020-07-30 16:00:00 36 27 Sudoeste 49 Sur 0 -- -- 22
2020-07-30 15:00:00 35.5 24 Sudoeste 39 Sur 0 -- -- 23
2020-07-30 14:00:00 34.1 17 Sudeste 27 Sudeste 0 -- -- 27
2020-07-30 13:00:00 32.9 16 Sudeste 30 Sudeste 0 -- -- 30
2020-07-30 12:00:00 30 15 Este 22 Este 0 -- -- 35
2020-07-30 11:00:00 27.7 10 Sur 29 Sudeste 0 -- -- 40
2020-07-30 10:00:00 25.8 13 Sudeste 23 Sur 0 -- -- 46
2020-07-30 09:00:00 24.5 16 Sur 26 Sur 0 -- -- 51
2020-07-30 08:00:00 22.2 17 Sur 33 Sur 0 -- -- 56
2020-07-30 07:00:00 20.3 26 Sur 30 Sur 0 -- -- 67
2020-07-30 06:00:00 19.2 16 Sur 20 Sudeste 0 -- -- 70
2020-07-30 05:00:00 19.2 3 Este 13 Este 0 -- -- 69
2020-07-30 04:00:00 20.5 5 Este 13 Sudeste 0 -- -- 66
2020-07-30 03:00:00 21.8 6 Este 12 Este 0 -- -- 61
2020-07-30 02:00:00 23.5 5 Sudeste 27 Sudeste 0 -- -- 55
2020-07-30 01:00:00 25.2 23 Sudeste 41 Sudeste 0 -- -- 51
2020-07-30 00:00:00 26.1 32 Sudeste 51 Este 0 -- -- 48
2020-07-29 23:00:00 27.4 34 Sudeste 49 Este 0 -- -- 30
2020-07-29 22:00:00 27.5 33 Este 50 Este 0 -- -- 35
2020-07-29 21:00:00 28.1 35 Este 53 Sudeste 0 -- -- 44
2020-07-29 20:00:00 29.1 39 Sudeste 51 Este 0 -- -- 43
2020-07-29 19:00:00 31 24 Sudeste 33 Sudeste 0 -- -- 36
2020-07-29 18:00:00 32.2 12 Sur 24 Sudoeste 0 -- -- 27
2020-07-29 17:00:00 33.8 13 Sur 30 Sudoeste 0 -- -- 27
2020-07-29 16:00:00 32.5 15 Sudoeste 30 Sudoeste 0 -- -- 28
2020-07-29 15:00:00 32.1 10 Sur 25 Este 0 -- -- 30
2020-07-29 14:00:00 31.3 9 Norte 30 Este 0 -- -- 36
2020-07-29 13:00:00 30.2 14 Este 23 Este 0 -- -- 42
2020-07-29 12:00:00 28.1 12 Este 20 Este 0 -- -- 46
2020-07-29 11:00:00 25.7 13 Sudeste 23 Este 0 -- -- 53
2020-07-29 10:00:00 22.9 17 Este 23 Este 0 -- -- 66
2020-07-29 09:00:00 18.1 0 Calma 3 Sudeste 0 -- -- 85
2020-07-29 08:00:00 15.8 3 Oeste 5 Oeste 0 -- -- 89
2020-07-29 07:00:00 15.9 3 Oeste 4 Oeste 0 -- -- 88
2020-07-29 06:00:00 16.6 2 Noroeste 5 Oeste 0 -- -- 86
2020-07-29 05:00:00 17.3 3 Oeste 6 Oeste 0 -- -- 84
2020-07-29 04:00:00 18.6 0 Calma 4 Este 0 -- -- 79
2020-07-29 03:00:00 19.4 3 Sudeste 7 Este 0 -- -- 75
2020-07-29 02:00:00 20.1 4 Oeste 6 Nordeste 0 -- -- 73
2020-07-29 01:00:00 21.7 3 Este 11 Nordeste 0 -- -- 67
2020-07-29 00:00:00 22.7 9 Nordeste 22 Este 0 -- -- 63
2020-07-28 23:00:00 23.9 18 Este 36 Este 0 -- -- 60
2020-07-28 22:00:00 25 31 Este 39 Este 0 -- -- 55
2020-07-28 21:00:00 26.2 28 Este 42 Este 0 -- -- 53
2020-07-28 20:00:00 30.4 16 Sudoeste 30 Sudoeste 0 -- -- 30
2020-07-28 19:00:00 32.1 20 Sudoeste 34 Sur 0 -- -- 27
2020-07-28 18:00:00 32.6 25 Sur 38 Sudoeste 0 -- -- 26
2020-07-28 17:00:00 31.9 21 Sur 37 Sur 0 -- -- 29
2020-07-28 16:00:00 32 21 Sudoeste 39 Sudoeste 0 -- -- 28
2020-07-28 15:00:00 31.9 17 Sur 42 Sur 0 -- -- 28
2020-07-28 14:00:00 31.8 16 Sur 38 Sudoeste 0 -- -- 27
2020-07-28 13:00:00 31.3 19 Sur 36 Sudoeste 0 -- -- 25
2020-07-28 12:00:00 30.6 19 Sudoeste 28 Sudoeste 0 -- -- 25
2020-07-28 11:00:00 29.3 17 Sur 25 Sudoeste 0 -- -- 32
2020-07-28 10:00:00 26.7 15 Sudoeste 23 Sudoeste 0 -- -- 37
2020-07-28 09:00:00 25 8 Nordeste 39 Sudoeste 0 -- -- 42
2020-07-28 08:00:00 23.2 32 Sur 43 Sur 0 -- -- 45
2020-07-28 07:00:00 23.4 33 Sur 42 Sur 0 -- -- 45
2020-07-28 06:00:00 23.5 24 Sur 33 Sur 0 -- -- 44
2020-07-28 05:00:00 23.8 22 Sur 30 Sur 0 -- -- 40
2020-07-28 04:00:00 24.6 18 Sur 26 Sur 0 -- -- 38
2020-07-28 03:00:00 26.8 26 Sur 36 Sur 0 -- -- 34
2020-07-28 02:00:00 26.6 19 Sur 27 Sur 0 -- -- 36
2020-07-28 01:00:00 27.8 25 Sudoeste 27 Sudoeste 0 -- -- 34
2020-07-28 00:00:00 27.4 3 Noroeste 24 Sudeste 0 -- -- 33
2020-07-27 23:00:00 29 14 Sudeste 48 Sur 0 -- -- 30
2020-07-27 22:00:00 30.3 5 Oeste 22 Sudoeste 0 -- -- 29
2020-07-27 21:00:00 33.6 18 Oeste 36 Sudoeste 0 -- -- 24
2020-07-27 20:00:00 34.8 27 Oeste 49 Sudoeste 0 -- -- 23
2020-07-27 19:00:00 35.5 29 Sudoeste 46 Oeste 0 -- -- 22
2020-07-27 18:00:00 35.7 30 Sudoeste 52 Sudoeste 0 -- -- 23
2020-07-27 17:00:00 36.1 22 Sudoeste 44 Sudoeste 0 -- -- 22
2020-07-27 16:00:00 35.4 19 Sudoeste 47 Sur 0 -- -- 26
2020-07-27 15:00:00 35.2 29 Sudoeste 42 Sudoeste 0 -- -- 24
2020-07-27 14:00:00 34 28 Sudoeste 42 Sudoeste 0 -- -- 29
2020-07-27 13:00:00 32.4 21 Sur 36 Sur 0 -- -- 33
2020-07-27 12:00:00 30.6 18 Sur 30 Sur 0 -- -- 37
2020-07-27 09:00:00 -- -- -- -- -- -- -- -- --
2020-07-27 08:00:00 19.9 6 Sudeste 9 Sudeste 0 -- -- 61
2020-07-27 07:00:00 18.3 4 Este 12 Sudeste 0 -- -- 64
2020-07-27 06:00:00 16 6 Sudeste 12 Sur 0 -- -- 70
2020-07-27 05:00:00 16 4 Sudeste 10 Sudeste 0 -- -- 70
2020-07-27 04:00:00 16.4 3 Este 7 Oeste 0 -- -- 66
2020-07-27 03:00:00 17.4 5 Sudeste 8 Sudeste 0 -- -- 62
2020-07-27 02:00:00 19.5 2 Sudeste 5 Oeste 0 -- -- 54
2020-07-27 01:00:00 20.7 2 Oeste 9 Sudeste 0 -- -- 49
2020-07-27 00:00:00 22.9 9 Sudeste 12 Sudeste 0 -- -- 46
2020-07-26 23:00:00 25 7 Sudeste 10 Sudeste 0 -- -- 37
2020-07-26 22:00:00 27.9 3 Noroeste 9 Norte 0 -- -- 30
2020-07-26 21:00:00 30.5 7 Noroeste 15 Noroeste 0 -- -- 27
2020-07-26 20:00:00 31.9 12 Noroeste 26 Noroeste 0 -- -- 24
2020-07-26 19:00:00 33.3 14 Norte 27 Este 0 -- -- 22
2020-07-26 18:00:00 33.8 15 Norte 23 Norte 0 -- -- 24
2020-07-26 17:00:00 33.3 8 Norte 26 Norte 0 -- -- 26
2020-07-26 16:00:00 32.7 11 Noroeste 29 Noroeste 0 -- -- 26
2020-07-26 15:00:00 31.5 7 Norte 21 Sudoeste 0 -- -- 27
2020-07-26 14:00:00 30.4 9 Norte 17 Nordeste 0 -- -- 29
2020-07-26 13:00:00 28.9 5 Nordeste 15 Norte 0 -- -- 31
2020-07-26 12:00:00 27.5 7 Norte 13 Norte 0 -- -- 34
2020-07-26 11:00:00 25.5 4 Nordeste 9 Norte 0 -- -- 40
2020-07-26 10:00:00 22.5 2 Este 5 Este 0 -- -- 53
2020-07-26 09:00:00 17.3 0 Calma 3 Nordeste 0 -- -- 61
2020-07-26 08:00:00 13.8 0 Calma 5 Este 0 -- -- 71
2020-07-26 07:00:00 13.5 0 Calma 9 Oeste 0 -- -- 70
2020-07-26 06:00:00 14.2 0 Calma 8 Este 0 -- -- 67
2020-07-26 05:00:00 14.6 2 Oeste 10 Sudeste 0 -- -- 67
2020-07-26 04:00:00 16.2 0 Calma 5 Este 0 -- -- 59
2020-07-26 03:00:00 17.6 2 Este 5 Oeste 0 -- -- 56
2020-07-26 02:00:00 19.5 2 Sudeste 7 Oeste 0 -- -- 49
2020-07-26 01:00:00 20.2 6 Sudeste 10 Este 0 -- -- 46
2020-07-26 00:00:00 22.2 4 Este 10 Este 0 -- -- 41
2020-07-25 23:00:00 25 3 Oeste 12 Oeste 0 -- -- 35
2020-07-25 22:00:00 27.3 8 Noroeste 22 Noroeste 0 -- -- 32
2020-07-25 21:00:00 30.6 15 Noroeste 30 Oeste 0 -- -- 26
2020-07-25 20:00:00 32.5 12 Oeste 32 Noroeste 0 -- -- 24
2020-07-25 19:00:00 32.9 8 Sudoeste 24 Sudoeste 0 -- -- 23
2020-07-25 18:00:00 31.9 15 Oeste 33 Oeste 0 -- -- 26
2020-07-25 17:00:00 32.3 8 Noroeste 28 Sudoeste 0 -- -- 26
2020-07-25 16:00:00 32 16 Oeste 32 Oeste 0 -- -- 26
2020-07-25 15:00:00 31 16 Oeste 32 Oeste 0 -- -- 28
2020-07-25 14:00:00 30.2 13 Sudoeste 24 Sudoeste 0 -- -- 28
2020-07-25 13:00:00 29 5 Sudoeste 19 Sur 0 -- -- 30
2020-07-25 12:00:00 27.2 10 Sudeste 18 Sudeste 0 -- -- 36
2020-07-25 11:00:00 25.6 11 Sudeste 16 Sur 0 -- -- 40
2020-07-25 10:00:00 21.9 8 Este 13 Este 0 -- -- 52
2020-07-25 09:00:00 16.9 3 Este 6 Este 0 -- -- 63
2020-07-25 08:00:00 13.1 0 Calma 5 Sudeste 0 -- -- 79
2020-07-25 07:00:00 11.9 3 Sudeste 5 Sudeste 0 -- -- 83
2020-07-25 06:00:00 12.8 2 Sudeste 6 Este 0 -- -- 82
2020-07-25 05:00:00 13.6 3 Oeste 4 Oeste 0 -- -- 79
2020-07-25 04:00:00 15.3 0 Calma 3 Este 0 -- -- 73
2020-07-25 03:00:00 16.6 0 Calma 5 Nordeste 0 -- -- 68
2020-07-25 02:00:00 18.1 0 Calma 5 Noroeste 0 -- -- 64
2020-07-25 01:00:00 18.8 8 Este 21 Este 0 -- -- 63
2020-07-25 00:00:00 19.7 9 Este 26 Este 0 -- -- 61
2020-07-24 23:00:00 20.8 4 Oeste 37 Este 0 -- -- 56
2020-07-24 22:00:00 22.9 25 Este 39 Este 0 -- -- 51
2020-07-24 21:00:00 27.5 13 Noroeste 26 Norte 0 -- -- 27
2020-07-24 20:00:00 29.3 16 Noroeste 32 Norte 0 -- -- 24
2020-07-24 19:00:00 29.9 22 Noroeste 38 Noroeste 0 -- -- 24
2020-07-24 18:00:00 31.1 19 Noroeste 34 Norte 0 -- -- 26
2020-07-24 17:00:00 31 17 Noroeste 36 Noroeste 0 -- -- 28
2020-07-24 16:00:00 30 17 Noroeste 39 Noroeste 0 -- -- 32
2020-07-24 15:00:00 29 15 Norte 27 Norte 0 -- -- 33
2020-07-24 14:00:00 28.2 11 Norte 27 Oeste 0 -- -- 40
2020-07-24 13:00:00 26.3 8 Nordeste 19 Este 0 -- -- 48
2020-07-24 12:00:00 24.8 6 Sudoeste 19 Este 0 -- -- 52
2020-07-24 11:00:00 22.8 13 Este 22 Este 0 -- -- 58
2020-07-24 10:00:00 21 11 Este 16 Este 0 -- -- 67
2020-07-24 09:00:00 18.4 3 Nordeste 6 Nordeste 0 -- -- 79
2020-07-24 08:00:00 15.6 2 Sudeste 3 Sudeste 0 -- -- 87
2020-07-24 07:00:00 15.1 5 Sudoeste 8 Oeste 0 -- -- 89
2020-07-24 06:00:00 15.6 2 Sudeste 5 Este 0 -- -- 86
2020-07-24 05:00:00 16.2 3 Este 5 Sudeste 0 -- -- 83
2020-07-24 04:00:00 17.6 0 Calma 5 Oeste 0 -- -- 78
2020-07-24 03:00:00 18.2 2 Oeste 6 Noroeste 0 -- -- 77
2020-07-24 02:00:00 19.5 4 Norte 8 Norte 0 -- -- 72
2020-07-24 01:00:00 20.9 4 Este 14 Este 0 -- -- 69
2020-07-24 00:00:00 22.1 7 Este 20 Este 0 -- -- 66
2020-07-23 23:00:00 23.3 13 Este 39 Este 0 -- -- 62
2020-07-23 22:00:00 25.5 26 Este 39 Este 0 -- -- 51
2020-07-23 21:00:00 28.1 21 Este 31 Noroeste 0 -- -- 42
2020-07-23 20:00:00 30.7 18 Noroeste 31 Oeste 0 -- -- 31
2020-07-23 19:00:00 31.2 22 Oeste 33 Noroeste 0 -- -- 29
2020-07-23 18:00:00 31.5 19 Noroeste 36 Oeste 0 -- -- 29
2020-07-23 17:00:00 31.7 13 Norte 37 Noroeste 0 -- -- 30
2020-07-23 16:00:00 31.2 20 Norte 33 Noroeste 0 -- -- 32
2020-07-23 15:00:00 30.2 18 Noroeste 32 Noroeste 0 -- -- 33
2020-07-23 14:00:00 29.8 13 Noroeste 25 Norte 0 -- -- 33
2020-07-23 13:00:00 29.6 13 Norte 27 Noroeste 0 -- -- 34
2020-07-23 12:00:00 27.9 13 Norte 24 Norte 0 -- -- 38
2020-07-23 11:00:00 26 9 Norte 14 Norte 0 -- -- 44
2020-07-23 10:00:00 23.1 3 Noroeste 7 Nordeste 0 -- -- 52
2020-07-23 09:00:00 19.6 0 Calma 5 Sudeste 0 -- -- 63
2020-07-23 08:00:00 16.3 3 Sudeste 7 Sudeste 0 -- -- 73
2020-07-23 07:00:00 15.3 4 Este 12 Sur 0 -- -- 73
2020-07-23 06:00:00 15.2 0 Calma 5 Oeste 0 -- -- 75
2020-07-23 05:00:00 15.5 0 Calma 8 Este 0 -- -- 76
2020-07-23 04:00:00 16 2 Este 10 Sudeste 0 -- -- 74
2020-07-23 03:00:00 17.1 6 Sudeste 9 Este 0 -- -- 70
2020-07-23 02:00:00 17.7 5 Sudeste 10 Este 0 -- -- 69
2020-07-23 01:00:00 19.4 4 Este 6 Este 0 -- -- 62
2020-07-23 00:00:00 21 2 Este 5 Este 0 -- -- 58
2020-07-22 23:00:00 22.7 4 Oeste 15 Oeste 0 -- -- 53
2020-07-22 22:00:00 23.7 4 Noroeste 25 Noroeste 0 -- -- 48
2020-07-22 21:00:00 26.3 14 Oeste 24 Oeste 0 -- -- 40
2020-07-22 20:00:00 28.4 12 Sudoeste 18 Sudoeste 0 -- -- 26
2020-07-22 19:00:00 30.8 9 Sur 23 Sur 0 -- -- 22
2020-07-22 18:00:00 30.7 14 Sudeste 22 Sudeste 0 -- -- 22
2020-07-22 17:00:00 30.7 7 Sur 22 Sur 0 -- -- 23
2020-07-22 16:00:00 29.2 10 Sudoeste 22 Sudoeste 0 -- -- 23
2020-07-22 15:00:00 29.4 12 Sudoeste 26 Sur 0 -- -- 23
2020-07-22 14:00:00 29.4 15 Sur 35 Sur 0 -- -- 22
2020-07-22 13:00:00 28 23 Sur 40 Sudeste 0 -- -- 21
2020-07-22 12:00:00 26.9 17 Sur 46 Sur 0 -- -- 29
2020-07-22 11:00:00 25.4 18 Sudeste 32 Sudeste 0 -- -- 27
2020-07-22 10:00:00 22.1 18 Sudeste 28 Sudeste 0 -- -- 52
2020-07-22 09:00:00 18.8 18 Sudeste 24 Sudeste 0 -- -- 70
2020-07-22 08:00:00 18.6 17 Sudoeste 23 Sudoeste 0 -- -- 68
2020-07-22 07:00:00 17.3 4 Oeste 14 Sudeste 0 -- -- 79
2020-07-22 06:00:00 17 5 Este 14 Sur 0 -- -- 79
2020-07-22 05:00:00 17.4 12 Sudoeste 17 Sudoeste 0 -- -- 78
2020-07-22 04:00:00 17.6 3 Oeste 14 Oeste 0 -- -- 76
2020-07-22 03:00:00 17.5 9 Oeste 11 Oeste 0 -- -- 77
2020-07-22 02:00:00 18.8 2 Nordeste 10 Nordeste 0 -- -- 72
2020-07-22 01:00:00 19.6 9 Nordeste 21 Este 0 -- -- 69
2020-07-22 00:00:00 20.7 15 Este 23 Este 0 -- -- 63
2020-07-21 23:00:00 21 7 Norte 17 Noroeste 0 -- -- 58
2020-07-21 22:00:00 22.1 8 Noroeste 32 Nordeste 0 -- -- 58
2020-07-21 21:00:00 23.6 19 Norte 53 Oeste 0 -- -- 50
2020-07-21 20:00:00 26.3 45 Noroeste 72 Noroeste 0 -- -- 36
2020-07-21 19:00:00 31.7 14 Sudoeste 35 Sur 0 -- -- 23
2020-07-21 18:00:00 33.7 21 Sudoeste 41 Sur 0 -- -- 19
2020-07-21 17:00:00 34.3 22 Sur 37 Sur 0 -- -- 19
2020-07-21 16:00:00 33.6 20 Sur 39 Sur 0 -- -- 22
2020-07-21 15:00:00 33.5 19 Sur 38 Sur 0 -- -- 24
2020-07-21 14:00:00 32.7 18 Sur 33 Sur 0 -- -- 25
2020-07-21 13:00:00 31.5 15 Sur 28 Sur 0 -- -- 29
2020-07-21 12:00:00 28.8 21 Sur 37 Sur 0 -- -- 39
2020-07-21 11:00:00 26.4 24 Sur 33 Sur 0 -- -- 48
2020-07-21 10:00:00 24.3 21 Sur 30 Sur 0 -- -- 53
2020-07-21 09:00:00 21.7 15 Este 21 Sudeste 0 -- -- 65
2020-07-21 08:00:00 18.6 9 Este 14 Este 0 -- -- 76
2020-07-21 07:00:00 17.7 7 Este 14 Este 0 -- -- 76
2020-07-21 06:00:00 18.2 12 Sur 18 Sudeste 0 -- -- 67
2020-07-21 05:00:00 18.1 13 Sudeste 16 Sudeste 0 -- -- 70
2020-07-21 04:00:00 17 3 Noroeste 12 Sudeste 0 -- -- 76
2020-07-21 03:00:00 17.6 2 Sudoeste 13 Sudeste 0 -- -- 72
2020-07-21 02:00:00 20.4 4 Sudeste 12 Sudeste 0 -- -- 66
2020-07-21 01:00:00 21.5 11 Sudeste 14 Sudeste 0 -- -- 60
2020-07-21 00:00:00 22.4 8 Sudeste 20 Este 0 -- -- 40
2020-07-20 23:00:00 23.1 0 Calma 16 Sudoeste 0 -- -- 37
2020-07-20 22:00:00 27.6 15 Sudoeste 20 Sur 0 -- -- 24
2020-07-20 21:00:00 28.7 14 Sudoeste 18 Sur 0 -- -- 25
2020-07-20 20:00:00 29.9 12 Sur 23 Sur 0 -- -- 21
2020-07-20 19:00:00 31.3 17 Sur 32 Sur 0 -- -- 18
2020-07-20 18:00:00 32.8 19 Sur 32 Sur 0 -- -- 18
2020-07-20 17:00:00 32.7 21 Sur 33 Sudoeste 0 -- -- 20
2020-07-20 16:00:00 32.2 10 Sur 34 Sur 0 -- -- 22
2020-07-20 15:00:00 31.5 18 Sur 34 Sudoeste 0 -- -- 22
2020-07-20 14:00:00 30.4 14 Sur 29 Sur 0 -- -- 28
2020-07-20 13:00:00 29.2 19 Sudoeste 31 Sudoeste 0 -- -- 31
2020-07-20 12:00:00 27.3 15 Sur 24 Sur 0 -- -- 38
2020-07-20 11:00:00 25.2 16 Sur 23 Sur 0 -- -- 45
2020-07-20 10:00:00 23.6 21 Sudeste 26 Sudeste 0 -- -- 51
2020-07-20 09:00:00 19.4 4 Este 7 Este 0 -- -- 69
2020-07-20 08:00:00 16.7 3 Sudeste 10 Sudeste 0 -- -- 73
2020-07-20 07:00:00 16.2 5 Sudeste 13 Sudeste 0 -- -- 71
2020-07-20 06:00:00 16.3 10 Sudeste 15 Este 0 -- -- 70
2020-07-20 05:00:00 17.7 8 Sudeste 10 Sudeste 0 -- -- 63
2020-07-20 04:00:00 18.1 4 Este 21 Sur 0 -- -- 63
2020-07-20 03:00:00 18.9 0 Calma 7 Sudoeste 0 -- -- 61
2020-07-20 02:00:00 20 6 Oeste 18 Sudeste 0 -- -- 60
2020-07-20 01:00:00 20.9 13 Sudeste 21 Este 0 -- -- 59
2020-07-20 00:00:00 22.3 12 Sudeste 48 Sudeste 0 -- -- 56
2020-07-19 23:00:00 22.6 20 Sudeste 37 Nordeste 0 -- -- 57
2020-07-19 22:00:00 23.7 6 Sudoeste 59 Este 0 -- -- 40
2020-07-19 21:00:00 23.7 12 Norte 51 Oeste 3.8 -- -- 52
2020-07-19 20:00:00 30.7 18 Sur 37 Sudeste 0 -- -- 28
2020-07-19 19:00:00 32.3 23 Sudeste 34 Sudeste 0 -- -- 26
2020-07-19 18:00:00 33.2 19 Sur 33 Sur 0 -- -- 24
2020-07-19 17:00:00 32.6 17 Sur 30 Sudoeste 0 -- -- 24
2020-07-19 16:00:00 33.3 14 Sudeste 27 Sur 0 -- -- 25
2020-07-19 15:00:00 32.4 11 Sur 23 Oeste 0 -- -- 24
2020-07-19 14:00:00 31.4 11 Sudeste 27 Este 0 -- -- 23
2020-07-19 13:00:00 30.4 8 Este 20 Sur 0 -- -- 24
2020-07-19 12:00:00 29.1 3 Oeste 14 Sur 0 -- -- 25
2020-07-19 11:00:00 27.5 8 Sur 15 Sur 0 -- -- 33
2020-07-19 10:00:00 23.6 5 Sur 9 Sudoeste 0 -- -- 46
2020-07-19 09:00:00 15.9 2 Sudeste 4 Oeste 0 -- -- 65
2020-07-19 08:00:00 12 0 Calma 7 Sudeste 0 -- -- 71
2020-07-19 07:00:00 10.1 4 Este 9 Este 0 -- -- 75
2020-07-19 06:00:00 11 4 Este 6 Este 0 -- -- 72
2020-07-19 05:00:00 12 0 Calma 5 Este 0 -- -- 66
2020-07-19 04:00:00 12.7 3 Este 5 Este 0 -- -- 64
2020-07-19 03:00:00 14.1 0 Calma 5 Noroeste 0 -- -- 58
2020-07-19 02:00:00 15.9 0 Calma 5 Oeste 0 -- -- 50
2020-07-19 01:00:00 17.8 0 Calma 6 Este 0 -- -- 46
2020-07-19 00:00:00 20.3 5 Este 12 Este 0 -- -- 37
2020-07-18 23:00:00 20.8 10 Este 15 Este 0 -- -- 32
2020-07-18 22:00:00 24.9 8 Oeste 12 Noroeste 0 -- -- 25
2020-07-18 21:00:00 28.8 10 Noroeste 21 Norte 0 -- -- 20
2020-07-18 20:00:00 30.1 15 Norte 23 Noroeste 0 -- -- 19
2020-07-18 19:00:00 31 15 Noroeste 30 Noroeste 0 -- -- 16
2020-07-18 18:00:00 31.3 12 Norte 25 Norte 0 -- -- 18
2020-07-18 17:00:00 30.3 9 Oeste 28 Nordeste 0 -- -- 23
2020-07-18 16:00:00 30.2 8 Norte 21 Nordeste 0 -- -- 24
2020-07-18 15:00:00 28.1 10 Noroeste 22 Noroeste 0 -- -- 25
2020-07-18 14:00:00 27.1 5 Nordeste 18 Norte 0 -- -- 30
2020-07-18 13:00:00 25.4 8 Oeste 15 Oeste 0 -- -- 30
2020-07-18 12:00:00 24.6 5 Este 12 Este 0 -- -- 42
2020-07-18 11:00:00 21.7 5 Este 13 Sudeste 0 -- -- 43
2020-07-18 10:00:00 18.1 3 Este 8 Este 0 -- -- 55
2020-07-18 09:00:00 13.7 4 Este 6 Este 0 -- -- 74
2020-07-18 08:00:00 9.4 3 Sudeste 5 Este 0 -- -- 87
2020-07-18 07:00:00 7.8 3 Oeste 7 Oeste 0 -- -- 90
2020-07-18 06:00:00 8.6 4 Sur 11 Sudeste 0 -- -- 90
2020-07-18 05:00:00 9.7 0 Calma 5 Oeste 0 -- -- 85
2020-07-18 04:00:00 10.7 4 Oeste 10 Oeste 0 -- -- 84
2020-07-18 03:00:00 12 0 Calma 5 Sudeste 0 -- -- 78
2020-07-18 02:00:00 13.3 3 Este 10 Este 0 -- -- 73
2020-07-18 01:00:00 15.7 4 Sudeste 15 Este 0 -- -- 64
2020-07-18 00:00:00 17.6 8 Sudeste 21 Este 0 -- -- 55
2020-07-17 23:00:00 19.2 3 Sur 16 Este 0 -- -- 49
2020-07-17 22:00:00 20.6 7 Nordeste 33 Este 0 -- -- 43
2020-07-17 21:00:00 23.2 26 Este 39 Este 0 -- -- 39
2020-07-17 20:00:00 25.9 23 Este 35 Nordeste 0 -- -- 28
2020-07-17 19:00:00 28.2 15 Este 27 Noroeste 0 -- -- 27
2020-07-17 18:00:00 29.4 16 Noroeste 32 Noroeste 0 -- -- 24
2020-07-17 17:00:00 28.1 14 Norte 32 Este 0 -- -- 26
2020-07-17 16:00:00 28.2 17 Nordeste 26 Nordeste 0 -- -- 24
2020-07-17 15:00:00 27.2 15 Noroeste 24 Noroeste 0 -- -- 25
2020-07-17 14:00:00 26.3 13 Nordeste 24 Nordeste 0 -- -- 29
2020-07-17 13:00:00 25.3 10 Nordeste 27 Nordeste 0 -- -- 30
2020-07-17 12:00:00 23.8 11 Nordeste 23 Nordeste 0 -- -- 35
2020-07-17 11:00:00 22.2 10 Norte 21 Norte 0 -- -- 39
2020-07-17 10:00:00 20.3 8 Nordeste 15 Nordeste 0 -- -- 43
2020-07-17 09:00:00 15.7 3 Este 5 Sudeste 0 -- -- 61
2020-07-17 08:00:00 12.2 0 Calma 6 Oeste 0 -- -- 73
2020-07-17 07:00:00 10.5 2 Oeste 5 Oeste 0 -- -- 77
2020-07-17 06:00:00 11.2 0 Calma 5 Este 0 -- -- 74
2020-07-17 05:00:00 12.5 0 Calma 6 Este 0 -- -- 70
2020-07-17 04:00:00 13.7 3 Sudeste 7 Este 0 -- -- 66
2020-07-17 03:00:00 15.1 5 Sudeste 13 Este 0 -- -- 58
2020-07-17 02:00:00 17.2 5 Este 10 Sudeste 0 -- -- 48
2020-07-17 01:00:00 18.1 6 Este 27 Sudeste 0 -- -- 50
2020-07-17 00:00:00 19.1 6 Sudeste 15 Este 0 -- -- 54
2020-07-16 23:00:00 20.5 3 Este 31 Nordeste 0 -- -- 53
2020-07-16 22:00:00 22 24 Este 34 Este 0 -- -- 49
2020-07-16 21:00:00 24.4 30 Este 40 Este 0 -- -- 44
2020-07-16 20:00:00 26.7 26 Este 36 Este 0 -- -- 39
2020-07-16 19:00:00 28.7 11 Nordeste 32 Este 0 -- -- 35
2020-07-16 18:00:00 29 14 Nordeste 25 Nordeste 0 -- -- 32
2020-07-16 17:00:00 28.9 14 Norte 28 Nordeste 0 -- -- 31
2020-07-16 16:00:00 28.7 6 Norte 26 Norte 0 -- -- 31
2020-07-16 15:00:00 27.2 5 Noroeste 22 Nordeste 0 -- -- 33
2020-07-16 14:00:00 26.1 5 Nordeste 21 Nordeste 0 -- -- 37
2020-07-16 13:00:00 25.1 12 Este 28 Este 0 -- -- 38
2020-07-16 12:00:00 23.5 16 Este 29 Este 0 -- -- 40
2020-07-16 11:00:00 21.9 18 Este 24 Nordeste 0 -- -- 44
2020-07-16 10:00:00 19.7 9 Este 15 Este 0 -- -- 40
2020-07-16 09:00:00 14.6 3 Oeste 5 Oeste 0 -- -- 66
2020-07-16 08:00:00 11.4 0 Calma 2 Nordeste 0 -- -- 80
2020-07-16 07:00:00 9.7 0 Calma 5 Sudeste 0 -- -- 84
2020-07-16 06:00:00 10.2 0 Calma 6 Este 0 -- -- 82
2020-07-16 05:00:00 10.6 5 Este 10 Sudoeste 0 -- -- 80
2020-07-16 04:00:00 11.7 0 Calma 9 Este 0 -- -- 76
2020-07-16 03:00:00 12.7 3 Este 9 Este 0 -- -- 72
2020-07-16 02:00:00 14.3 2 Sudeste 8 Este 0 -- -- 64
2020-07-16 01:00:00 15.4 4 Nordeste 13 Sudeste 0 -- -- 62
2020-07-16 00:00:00 16.4 8 Este 30 Este 0 -- -- 61
2020-07-15 23:00:00 17.5 6 Noroeste 40 Este 0 -- -- 59
2020-07-15 22:00:00 19 25 Este 43 Este 0 -- -- 56
2020-07-15 21:00:00 21.4 32 Este 41 Este 0 -- -- 49
2020-07-15 20:00:00 23.8 34 Este 44 Este 0 -- -- 44
2020-07-15 19:00:00 25.6 15 Este 26 Este 0 -- -- 34
2020-07-15 18:00:00 26 10 Nordeste 19 Nordeste 0 -- -- 34
2020-07-15 17:00:00 26.1 6 Norte 27 Este 0 -- -- 34
2020-07-15 16:00:00 25.4 13 Nordeste 34 Este 0 -- -- 35
2020-07-15 15:00:00 24.4 15 Este 32 Nordeste 0 -- -- 37
2020-07-15 14:00:00 23.1 9 Este 28 Este 0 -- -- 37
2020-07-15 13:00:00 21.9 12 Este 30 Nordeste 0 -- -- 40
2020-07-15 12:00:00 20.2 18 Este 30 Este 0 -- -- 43
2020-07-15 11:00:00 18.7 20 Este 30 Este 0 -- -- 41
2020-07-15 10:00:00 16.6 14 Este 22 Este 0 -- -- 40
2020-07-15 09:00:00 13.4 6 Este 10 Sudeste 0 -- -- 52
2020-07-15 08:00:00 9.5 0 Calma 4 Oeste 0 -- -- 80
2020-07-15 07:00:00 8.4 3 Oeste 6 Este 0 -- -- 81
2020-07-15 06:00:00 8.8 3 Sudeste 6 Oeste 0 -- -- 81
2020-07-15 05:00:00 9.8 3 Sudeste 5 Este 0 -- -- 75
2020-07-15 04:00:00 11.3 0 Calma 6 Este 0 -- -- 69
2020-07-15 03:00:00 12.6 4 Sudeste 8 Sudeste 0 -- -- 62
2020-07-15 02:00:00 13.3 5 Este 18 Este 0 -- -- 64
2020-07-15 01:00:00 14.7 0 Calma 24 Este 0 -- -- 63
2020-07-15 00:00:00 16 12 Este 28 Este 0 -- -- 62
2020-07-14 23:00:00 17.4 19 Este 34 Nordeste 0 -- -- 54
2020-07-14 22:00:00 19.4 24 Este 38 Este 0 -- -- 45
2020-07-14 21:00:00 22 27 Este 40 Este 0 -- -- 38
2020-07-14 20:00:00 23.6 31 Este 42 Este 0 -- -- 30
2020-07-14 19:00:00 25.1 31 Este 44 Este 0 -- -- 24
2020-07-14 18:00:00 25.7 21 Este 34 Este 0 -- -- 22
2020-07-14 17:00:00 26.1 15 Este 36 Nordeste 0 -- -- 21
2020-07-14 16:00:00 25.9 12 Nordeste 25 Nordeste 0 -- -- 20
2020-07-14 15:00:00 24.7 14 Este 27 Nordeste 0 -- -- 20
2020-07-14 14:00:00 23.7 16 Nordeste 28 Nordeste 0 -- -- 21
2020-07-14 13:00:00 22.8 17 Este 26 Este 0 -- -- 18
2020-07-14 12:00:00 21.7 15 Nordeste 30 Este 0 -- -- 18
2020-07-14 11:00:00 19.2 13 Nordeste 18 Nordeste 0 -- -- 23
2020-07-14 10:00:00 16.7 10 Este 15 Este 0 -- -- 31
2020-07-14 09:00:00 11.2 0 Calma 5 Este 0 -- -- 78
2020-07-14 08:00:00 9.7 2 Noroeste 5 Oeste 0 -- -- 82
2020-07-14 07:00:00 9.4 0 Calma 5 Sudoeste 0 -- -- 77
2020-07-14 06:00:00 10.3 2 Oeste 5 Este 0 -- -- 70
2020-07-14 05:00:00 11.1 2 Norte 9 Nordeste 0 -- -- 75
2020-07-14 04:00:00 12.2 2 Sudeste 6 Sudeste 0 -- -- 75
2020-07-14 03:00:00 13.6 4 Este 6 Sudeste 0 -- -- 73
2020-07-14 02:00:00 15 2 Sudeste 10 Sudeste 0 -- -- 66
2020-07-14 01:00:00 16.1 10 Sudeste 19 Este 0 -- -- 61
2020-07-14 00:00:00 17.6 6 Este 16 Nordeste 0 -- -- 62
2020-07-13 23:00:00 18.7 14 Nordeste 30 Este 0 -- -- 60
2020-07-13 22:00:00 20.5 18 Nordeste 41 Este 0 -- -- 56
2020-07-13 21:00:00 23.2 28 Este 42 Nordeste 0 -- -- 51
2020-07-13 20:00:00 25.4 25 Este 35 Este 0 -- -- 46
2020-07-13 19:00:00 27.3 16 Este 23 Este 0 -- -- 40
2020-07-13 18:00:00 27.6 12 Nordeste 26 Este 0 -- -- 40
2020-07-13 17:00:00 27.5 8 Nordeste 24 Este 0 -- -- 39
2020-07-13 16:00:00 27.3 10 Nordeste 23 Norte 0 -- -- 39
2020-07-13 15:00:00 26.4 15 Nordeste 25 Este 0 -- -- 42
2020-07-13 14:00:00 25.8 7 Norte 24 Nordeste 0 -- -- 46
2020-07-13 13:00:00 24 12 Este 25 Este 0 -- -- 52
2020-07-13 12:00:00 22.5 15 Este 24 Este 0 -- -- 60
2020-07-13 11:00:00 20.6 19 Este 28 Este 0 -- -- 67
2020-07-13 10:00:00 19.6 11 Este 19 Este 0 -- -- 75
2020-07-13 09:00:00 15.5 0 Calma 4 Este 0 -- -- 89
2020-07-13 08:00:00 13.6 0 Calma 2 Nordeste 0 -- -- 94
2020-07-13 07:00:00 12.4 0 Calma 7 Oeste 0 -- -- 93
2020-07-13 06:00:00 12.7 2 Sudoeste 6 Oeste 0 -- -- 93
2020-07-13 05:00:00 13.7 2 Oeste 5 Oeste 0 -- -- 90
2020-07-13 04:00:00 14.7 2 Oeste 9 Este 0 -- -- 88
2020-07-13 03:00:00 15.3 6 Sudeste 10 Sudeste 0 -- -- 86
2020-07-13 02:00:00 15.1 3 Sudeste 13 Sudeste 0 -- -- 87
2020-07-13 01:00:00 14.5 10 Sudeste 23 Este 0 -- -- 89
2020-07-13 00:00:00 15.7 4 Oeste 11 Oeste 0 -- -- 81
2020-07-12 23:00:00 15.9 9 Oeste 13 Oeste 0 -- -- 83
2020-07-12 22:00:00 17 5 Noroeste 12 Noroeste 0 -- -- 78
2020-07-12 21:00:00 16.9 8 Norte 39 Sudeste 0 -- -- 78
2020-07-12 20:00:00 17.4 28 Sudeste 34 Sudeste 0.4 -- -- 75
2020-07-12 19:00:00 16.7 22 Sur 107 Noroeste 3.4 -- -- 77
2020-07-12 18:00:00 -- -- -- -- -- 0 -- -- --
2020-07-12 17:00:00 26.8 16 Sudeste 41 Este 0 -- -- 41
2020-07-12 16:00:00 26.8 23 Este 39 Sudeste 0 -- -- 40
2020-07-12 15:00:00 26.1 24 Sudeste 39 Sudeste 0 -- -- 43
2020-07-12 14:00:00 24.4 25 Sudeste 47 Sudeste 0 -- -- 48
2020-07-12 13:00:00 23.7 30 Sudeste 41 Sudeste 0 -- -- 56
2020-07-12 12:00:00 22 17 Sur 55 Este 0 -- -- 61
2020-07-12 11:00:00 18.3 23 Este 61 Este 0.2 -- -- 67
2020-07-12 10:00:00 17.9 19 Sudeste 31 Este 3.2 -- -- 84
2020-07-12 09:00:00 18.9 11 Este 18 Este 0 -- -- 74
2020-07-12 08:00:00 17.2 6 Este 10 Este 0 -- -- 81
2020-07-12 07:00:00 17 2 Sur 18 Sur 0 -- -- 80
2020-07-12 06:00:00 17.4 18 Sur 26 Sur 0 -- -- 77
2020-07-12 05:00:00 18.1 21 Sudeste 27 Sudeste 0 -- -- 73
2020-07-12 04:00:00 18.2 19 Sudeste 27 Sudeste 0 -- -- 70
2020-07-12 03:00:00 18.4 15 Sudeste 19 Sudeste 0 -- -- 69
2020-07-12 02:00:00 18.7 10 Sudeste 20 Sudeste 0 -- -- 68
2020-07-12 01:00:00 19.7 8 Sudeste 26 Sudeste 0 -- -- 64
2020-07-12 00:00:00 21.3 16 Sudeste 31 Este 0 -- -- 57
2020-07-11 23:00:00 22.6 22 Este 41 Este 0 -- -- 54
2020-07-11 22:00:00 24 31 Este 39 Este 0 -- -- 50
2020-07-11 21:00:00 26.1 28 Este 42 Este 0 -- -- 47
2020-07-11 20:00:00 29.4 17 Sudeste 27 Este 0 -- -- 40
2020-07-11 19:00:00 30.2 15 Sur 32 Sur 0 -- -- 31
2020-07-11 18:00:00 30.7 8 Sur 30 Sudeste 0 -- -- 32
2020-07-11 17:00:00 31.1 15 Sur 29 Sudeste 0 -- -- 32
2020-07-11 16:00:00 30.4 16 Sur 28 Sur 0 -- -- 32
2020-07-11 15:00:00 29.9 9 Sur 24 Sur 0 -- -- 34
2020-07-11 14:00:00 28.4 12 Sudoeste 22 Sudoeste 0 -- -- 37
2020-07-11 13:00:00 27.2 8 Este 32 Este 0 -- -- 46
2020-07-11 12:00:00 24.8 16 Sudeste 26 Sudeste 0 -- -- 53
2020-07-11 11:00:00 21.9 17 Este 25 Este 0 -- -- 64
2020-07-11 10:00:00 19.2 17 Sudeste 24 Este 0 -- -- 74
2020-07-11 09:00:00 16.2 14 Sudeste 20 Sudeste 0 -- -- 86
2020-07-11 08:00:00 14.3 6 Este 12 Sudeste 0 -- -- 92
2020-07-11 07:00:00 13.2 5 Sudeste 8 Sudeste 0 -- -- 93
2020-07-11 06:00:00 13.1 3 Sudeste 5 Sudeste 0 -- -- 91
2020-07-11 05:00:00 13.7 0 Calma 5 Oeste 0 -- -- 89
2020-07-11 04:00:00 14.4 2 Oeste 4 Este 0 -- -- 88
2020-07-11 03:00:00 15 0 Calma 7 Nordeste 0 -- -- 85
2020-07-11 02:00:00 15.7 5 Nordeste 14 Este 0 -- -- 83
2020-07-11 01:00:00 17.2 6 Este 14 Nordeste 0 -- -- 78
2020-07-11 00:00:00 18.4 9 Nordeste 14 Nordeste 0 -- -- 74
2020-07-10 23:00:00 20.3 7 Este 26 Este 0 -- -- 67
2020-07-10 22:00:00 21.7 19 Este 35 Este 0 -- -- 63
2020-07-10 21:00:00 24 28 Este 44 Este 0 -- -- 55
2020-07-10 20:00:00 25.5 26 Este 32 Nordeste 0 -- -- 49
2020-07-10 19:00:00 26.7 4 Sudeste 14 Sur 0 -- -- 41
2020-07-10 18:00:00 26.8 7 Sur 20 Sudeste 0 -- -- 40
2020-07-10 17:00:00 27.3 12 Sudeste 24 Este 0 -- -- 39
2020-07-10 16:00:00 26.4 14 Este 27 Este 0 -- -- 42
2020-07-10 15:00:00 26.6 15 Sudeste 26 Sudeste 0 -- -- 41
2020-07-10 14:00:00 25.3 14 Este 29 Sudeste 0 -- -- 45
2020-07-10 13:00:00 24.1 17 Este 28 Este 0 -- -- 49
2020-07-10 12:00:00 23.5 14 Sudeste 28 Este 0 -- -- 53
2020-07-10 11:00:00 21.6 18 Este 27 Este 0 -- -- 63
2020-07-10 10:00:00 20.4 10 Este 20 Este 0 -- -- 68
2020-07-10 09:00:00 15.9 5 Este 7 Este 0 -- -- 91
2020-07-10 08:00:00 12.7 4 Este 8 Sudeste 0 -- -- 94
2020-07-10 07:00:00 11.5 4 Sur 5 Sudeste 0.2 -- -- 94
2020-07-10 06:00:00 11.7 0 Calma 5 Este 0 -- -- 93
2020-07-10 05:00:00 12.1 3 Este 5 Sudeste 0 -- -- 92
2020-07-10 04:00:00 12.7 4 Sudeste 10 Sudeste 0 -- -- 91
2020-07-10 03:00:00 13.4 0 Calma 9 Oeste 0 -- -- 89
2020-07-10 02:00:00 14.6 2 Norte 13 Norte 0 -- -- 83
2020-07-10 01:00:00 15.9 8 Este 12 Sur 0 -- -- 79
2020-07-10 00:00:00 16.1 3 Este 9 Sur 0 -- -- 78
2020-07-09 23:00:00 16.3 9 Sudeste 51 Sur 0.2 -- -- 77
2020-07-09 22:00:00 17 17 Sur 40 Sur 0 -- -- 73
2020-07-09 21:00:00 18.4 18 Sudeste 26 Sudeste 0 -- -- 71
2020-07-09 20:00:00 19 6 Este 15 Noroeste 0 -- -- 72
2020-07-09 19:00:00 18.6 11 Noroeste 18 Noroeste 0 -- -- 72
2020-07-09 18:00:00 16.9 18 Oeste 52 Oeste 1.4 -- -- 76
2020-07-09 17:00:00 16.6 11 Sur 80 Sur 7.2 -- -- 78
2020-07-09 16:00:00 20.1 55 Sur 73 Sudeste 0 -- -- 62
2020-07-09 15:00:00 29.1 15 Sudeste 40 Sudeste 0 -- -- 34
2020-07-09 14:00:00 28.2 26 Sudeste 38 Este 0 -- -- 37
2020-07-09 13:00:00 28.4 16 Sudeste 37 Sudeste 0 -- -- 34
2020-07-09 12:00:00 27.7 18 Sudeste 33 Sudeste 0 -- -- 36
2020-07-09 11:00:00 25.7 19 Sur 27 Sur 0 -- -- 39
2020-07-09 10:00:00 23.3 19 Sur 24 Sur 0 -- -- 45
2020-07-09 09:00:00 16.3 3 Norte 9 Sudeste 0 -- -- 70
2020-07-09 08:00:00 13.7 8 Sudeste 10 Sudeste 0 -- -- 76
2020-07-09 07:00:00 14.3 0 Calma 5 Este 0 -- -- 72
2020-07-09 06:00:00 14.6 3 Oeste 8 Noroeste 0 -- -- 72
2020-07-09 05:00:00 14.8 4 Sudeste 8 Este 0 -- -- 70
2020-07-09 04:00:00 15 4 Sudeste 16 Sudeste 0 -- -- 69
2020-07-09 03:00:00 16.2 2 Noroeste 10 Noroeste 0 -- -- 64
2020-07-09 02:00:00 17.8 3 Oeste 15 Norte 0 -- -- 59
2020-07-09 01:00:00 18.7 4 Norte 28 Noroeste 0 -- -- 55
2020-07-09 00:00:00 19.7 24 Noroeste 49 Noroeste 0 -- -- 55
2020-07-08 23:00:00 22.7 18 Noroeste 32 Sudeste 0 -- -- 42
2020-07-08 22:00:00 23.6 25 Sudeste 55 Sudeste 0 -- -- 40
2020-07-08 21:00:00 23.9 40 Sudeste 60 Sudeste 0 -- -- 40
2020-07-08 20:00:00 24.9 44 Sudeste 65 Sudeste 0 -- -- 38
2020-07-08 19:00:00 27 31 Sudeste 52 Este 0 -- -- 31
2020-07-08 18:00:00 26.4 28 Sudeste 59 Sudeste 0 -- -- 32
2020-07-08 17:00:00 28.1 31 Sudeste 79 Norte 1.2 -- -- 28
2020-07-08 16:00:00 28.9 36 Oeste 59 Oeste 0 -- -- 26
2020-07-08 15:00:00 31.5 11 Noroeste 18 Noroeste 0 -- -- 22
2020-07-08 14:00:00 30.1 8 Este 24 Nordeste 0 -- -- 26
2020-07-08 13:00:00 30.5 12 Sur 25 Sur 0 -- -- 23
2020-07-08 12:00:00 29 22 Sur 31 Sudoeste 0 -- -- 28
2020-07-08 11:00:00 25.4 16 Sudeste 70 Sudoeste 0 -- -- 33
2020-07-08 10:00:00 25.4 43 Oeste 72 Sudoeste 0 -- -- 32
2020-07-08 09:00:00 20.5 14 Sudeste 33 Sudeste 0 -- -- 48
2020-07-08 08:00:00 19.1 23 Sur 54 Oeste 0 -- -- 44
2020-07-08 07:00:00 15.3 4 Sudeste 22 Sudoeste 0 -- -- 50
2020-07-08 06:00:00 14.3 7 Sudeste 11 Oeste 0 -- -- 58
2020-07-08 05:00:00 16.1 0 Calma 4 Sudeste 0 -- -- 51
2020-07-08 04:00:00 17.5 0 Calma 8 Sur 0 -- -- 46
2020-07-08 03:00:00 18.5 3 Sur 17 Sudeste 0 -- -- 43
2020-07-08 02:00:00 19.8 10 Sudeste 19 Sudeste 0 -- -- 43
2020-07-08 01:00:00 21 8 Sudeste 15 Este 0 -- -- 41
2020-07-08 00:00:00 22.5 6 Este 24 Sudeste 0 -- -- 39